Flughafen Rostock-Laage

Aus VATSIM Germany
Dies ist die bestätigte sowie die neueste Version dieser Seite.
Wechseln zu:Navigation, Suche
UnderCon icon.svg.pngDieser Artikel ist noch im Aufbau. Der Artikel kann daher unvollständig sein oder Fehler enthalten!


Rostock-Laage Airport
ICAO / IATA ETNL / RLG
Koordinaten N53°55′6″  E012°16′42″
Höhe 42 m / 138 ft
Wetter ETNL 190420Z 18004KT 9999 OVC120 09/07 Q1018 BLU BLU
Pisten
Platzfrequenzen
Nur für Flugsimulationszwecke!



Informationen für Piloten und Lotsen
Pilotenbriefing

Standard Operating Procedures (SOP)

Letters of Agreement (LoAs)

Airport Charts